Terminal Aerodrome Forecast
Issued by NWS

Current Version | Previous Version | Text Only | Print | Product List | Glossary Off
Versions: 1 2 3 4 5 6 7 8 9 10 11 12 13 14 15 16 17 18 19

603
FTUS41 KRLX 170537
TAFCKB
TAF
KCKB 170537Z 1706/1806 VRB03KT P6SM BKN070
     FM171400 19005KT P6SM SCT200
     FM180200 21004KT P6SM SKC=

USA.gov is the U.S. government's official web portal to all federal, state and local government web resources and services.